CDT,Max TemperatureF,Mean TemperatureF,Min TemperatureF,Max Dew PointF,MeanDew PointF,Min DewpointF,Max Humidity, Mean Humidity, Min Humidity, Max Sea Level PressureIn, Mean Sea Level PressureIn, Min Sea Level PressureIn, Max VisibilityMiles, Mean VisibilityMiles, Min VisibilityMiles, Max Wind SpeedMPH, Mean Wind SpeedMPH, Max Gust SpeedMPH,PrecipitationIn, CloudCover, Events, WindDirDegrees
2013-3-1,30,27,24,26,21,19,86,80,72,30.22,30.14,30.07,10,9,4,15,8,23,0.00,4,Snow,351
2013-3-2,26,17,8,19,13,4,89,70,53,30.23,30.21,30.18,10,10,10,13,8,17,0.00,,,340
2013-3-3,31,18,6,14,9,4,93,67,37,30.19,30.13,30.08,10,10,10,7,1,,0.00,,,103
2013-3-4,33,28,24,29,23,12,88,76,60,30.10,30.00,29.92,10,10,2,17,10,26,0.00,,Rain-Snow,102
2013-3-5,32,30,27,32,29,25,99,94,88,30.06,29.89,29.82,10,3,0,17,8,23,0.12,,Rain-Snow,345
2013-3-6,29,26,24,24,22,21,88,81,74,30.34,30.26,30.07,10,10,10,17,12,25,0.00,,,315
2013-3-7,34,28,22,24,22,20,88,77,64,30.42,30.39,30.33,10,10,10,8,4,,0.00,,,107
2013-3-8,38,27,16,31,25,14,93,80,65,30.45,30.38,30.24,10,9,4,13,5,20,0.00,,,125
2013-3-9,48,40,33,40,33,29,89,81,62,30.24,30.01,29.79,10,9,5,15,8,20,0.17,,Rain,150
2013-3-10,50,44,39,50,45,39,100,96,86,29.84,29.70,29.55,10,5,0,13,6,20,1.06,,Fog-Rain-Thunderstorm,172
2013-3-11,44,38,30,45,34,25,100,92,78,29.89,29.69,29.60,10,8,2,17,8,28,0.03,,Rain,252
2013-3-12,37,32,26,31,24,19,94,77,60,30.11,29.99,29.89,10,9,1,24,12,32,0.00,,Snow,269
2013-3-13,34,28,22,21,19,16,83,69,47,30.36,30.28,30.11,10,10,7,16,12,24,0.00,,Snow,301
2013-3-14,42,32,21,30,24,18,93,74,56,30.36,30.23,30.07,10,10,10,16,4,20,0.00,,,164
2013-3-15,50,38,27,42,34,26,96,82,56,30.06,29.88,29.70,10,8,5,10,4,16,0.00,,,100
2013-3-16,37,34,29,36,30,25,98,87,71,30.12,29.93,29.68,10,7,2,15,7,20,0.00,,,7
2013-3-17,35,32,28,27,24,20,83,73,62,30.18,30.09,29.93,10,10,10,15,7,21,0.00,,,72
2013-3-18,36,30,24,33,26,12,96,84,59,29.92,29.78,29.68,10,8,2,24,11,38,0.00,,Rain-Snow,323
2013-3-19,37,28,18,20,13,8,69,56,39,30.14,30.05,29.89,10,10,10,21,14,30,0.00,,,282
2013-3-20,28,21,14,19,9,4,74,57,41,30.19,30.13,30.09,10,10,10,22,14,32,0.00,,Snow,304
2013-3-21,34,23,13,18,11,7,83,61,39,30.10,30.06,30.01,10,10,10,13,7,17,0.00,,,331
2013-3-22,42,28,14,22,17,11,93,63,34,30.08,30.05,30.00,10,10,7,7,1,,0.00,,,32
2013-3-23,45,36,26,25,23,21,84,61,40,30.11,30.05,29.97,10,10,10,14,3,18,0.00,,,61
2013-3-24,32,30,29,31,28,23,97,91,69,30.00,29.79,29.66,10,3,1,18,10,25,0.02,,Rain-Snow,31
2013-3-25,35,31,27,28,25,22,95,77,68,30.13,29.92,29.76,10,9,2,17,12,24,0.00,,Snow,340
2013-3-26,37,34,31,27,25,22,80,71,57,30.30,30.22,30.13,10,10,10,15,6,18,0.00,,,314
2013-3-27,44,36,28,26,23,20,79,61,42,30.36,30.32,30.30,10,10,10,10,3,16,0.00,,,308
2013-3-28,50,36,23,32,26,21,92,65,38,30.37,30.33,30.27,10,10,10,6,1,,0.00,,,208
2013-3-29,56,44,32,35,32,30,93,66,37,30.31,30.27,30.21,10,9,5,7,1,,0.03,1,,75
2013-3-30,58,43,29,42,35,27,93,69,49,30.23,30.05,29.87,10,9,5,22,5,30,0.00,2,,190
2013-3-31,61,48,37,43,37,27,93,67,36,29.95,29.84,29.78,10,9,4,24,10,31,0.00,5,,289